Time;durP1;ratioP1;P1;durP2;ratioP2;P2;SDS_P1;SDS_P2;PMS_P1;PMS_P2;Temp;Humidity;BMP_temperature;BMP_pressure;BME280_temperature;BME280_humidity;BME280_pressure;Samples;Min_cycle;Max_cycle;Signal;HPM_P1;HPM_P2
2024/01/16 00:00:51;;;;;;;4.28;1.90;;;5.60;99.90;;;;;;5030044;28;20021;-84
2024/01/16 00:03:17;;;;;;;3.88;2.05;;;5.60;99.90;;;;;;5015468;28;20525;-84
2024/01/16 00:05:42;;;;;;;5.65;1.83;;;5.60;99.90;;;;;;5013154;28;20018;-83
2024/01/16 00:08:08;;;;;;;4.30;2.03;;;5.60;99.90;;;;;;5014423;28;20530;-83
2024/01/16 00:10:34;;;;;;;5.60;2.10;;;5.60;99.90;;;;;;5032024;28;20029;-83
2024/01/16 00:12:59;;;;;;;5.20;2.15;;;5.60;99.90;;;;;;5031193;28;20021;-85
2024/01/16 00:15:25;;;;;;;3.05;1.80;;;5.60;99.90;;;;;;5011430;28;20080;-83
2024/01/16 00:17:51;;;;;;;3.58;1.75;;;5.60;99.90;;;;;;5011847;28;20480;-83
2024/01/16 00:20:17;;;;;;;4.05;1.90;;;5.60;99.90;;;;;;5014921;28;20032;-83
2024/01/16 00:22:42;;;;;;;8.07;1.90;;;5.60;99.90;;;;;;5011273;28;20026;-84
2024/01/16 00:25:08;;;;;;;3.60;1.90;;;5.60;99.90;;;;;;5013226;28;20484;-83
2024/01/16 00:27:33;;;;;;;7.13;1.60;;;5.60;99.90;;;;;;5007282;28;20761;-84
2024/01/16 00:29:59;;;;;;;4.82;1.98;;;5.60;99.90;;;;;;5012860;28;20022;-82
2024/01/16 00:32:25;;;;;;;10.23;2.92;;;5.60;99.90;;;;;;5023474;28;20032;-84
2024/01/16 00:34:50;;;;;;;4.32;2.15;;;5.60;99.90;;;;;;5013909;28;20024;-82
2024/01/16 00:37:16;;;;;;;3.78;2.25;;;5.60;99.90;;;;;;5013909;28;20029;-84
2024/01/16 00:39:42;;;;;;;4.65;2.20;;;5.60;99.90;;;;;;5027295;28;20490;-83
2024/01/16 00:42:08;;;;;;;6.55;2.67;;;5.60;99.90;;;;;;5012518;28;20041;-83
2024/01/16 00:44:34;;;;;;;4.93;2.22;;;5.60;99.90;;;;;;5012546;28;20079;-84
2024/01/16 00:47:01;;;;;;;3.88;2.20;;;5.60;99.90;;;;;;5013051;28;20091;-84
2024/01/16 00:49:27;;;;;;;4.40;2.08;;;5.60;99.90;;;;;;5029644;28;20530;-84
2024/01/16 00:51:53;;;;;;;5.25;2.45;;;5.60;99.90;;;;;;5011914;28;20022;-84
2024/01/16 00:54:18;;;;;;;7.20;2.38;;;5.60;99.90;;;;;;5006636;28;20014;-84
2024/01/16 00:56:44;;;;;;;4.53;2.67;;;5.60;99.90;;;;;;5011229;28;20498;-84
2024/01/16 00:59:10;;;;;;;7.03;2.67;;;5.60;99.90;;;;;;5012343;28;20033;-85
2024/01/16 01:01:37;;;;;;;5.03;1.92;;;5.60;99.90;;;;;;5029292;28;20018;-84
2024/01/16 01:04:03;;;;;;;5.40;2.25;;;5.60;99.90;;;;;;5010385;28;20029;-83
2024/01/16 01:06:29;;;;;;;4.88;2.28;;;5.60;99.90;;;;;;5015441;28;20111;-82
2024/01/16 01:08:54;;;;;;;5.15;3.05;;;5.60;99.90;;;;;;5027880;28;20029;-82
2024/01/16 01:11:20;;;;;;;6.20;2.47;;;5.50;99.90;;;;;;5012696;28;20013;-82
2024/01/16 01:13:46;;;;;;;6.60;2.85;;;5.60;99.90;;;;;;5034123;28;20448;-82
2024/01/16 01:16:11;;;;;;;5.35;2.55;;;5.60;99.90;;;;;;5014817;28;20030;-83
2024/01/16 01:18:37;;;;;;;5.90;2.65;;;5.60;99.90;;;;;;5026881;28;20021;-83
2024/01/16 01:21:02;;;;;;;5.07;1.90;;;5.50;99.90;;;;;;5005798;28;20029;-81
2024/01/16 01:23:28;;;;;;;5.82;2.40;;;5.60;99.90;;;;;;5016717;28;20020;-82
2024/01/16 01:25:54;;;;;;;3.72;2.10;;;5.50;99.90;;;;;;5034986;28;20373;-82
2024/01/16 01:28:19;;;;;;;4.65;2.10;;;5.60;99.90;;;;;;5016572;28;20039;-82
2024/01/16 01:30:45;;;;;;;7.38;2.15;;;5.60;99.90;;;;;;5027737;28;20030;-82
2024/01/16 01:33:11;;;;;;;4.57;2.13;;;5.60;99.90;;;;;;5014297;28;20017;-83
2024/01/16 01:35:37;;;;;;;5.38;2.38;;;5.60;99.90;;;;;;5012182;28;20028;-83
2024/01/16 01:38:03;;;;;;;4.75;2.42;;;5.60;99.90;;;;;;5015417;28;20017;-81
2024/01/16 01:40:28;;;;;;;7.65;2.92;;;5.60;99.90;;;;;;5019411;28;20037;-82
2024/01/16 01:42:54;;;;;;;4.90;2.40;;;5.60;99.90;;;;;;5013852;28;20022;-83
2024/01/16 01:45:19;;;;;;;5.18;2.30;;;5.60;99.90;;;;;;5006141;28;20025;-83
2024/01/16 01:47:46;;;;;;;6.07;2.47;;;5.60;99.90;;;;;;5014947;28;20017;-82
2024/01/16 01:50:13;;;;;;;4.85;2.08;;;5.60;99.90;;;;;;5020082;28;20025;-82
2024/01/16 01:52:39;;;;;;;4.22;2.45;;;5.60;99.90;;;;;;5016425;28;20068;-82
2024/01/16 01:55:11;;;;;;;9.82;3.67;;;5.60;99.90;;;;;;5029293;28;20032;-82
2024/01/16 01:57:36;;;;;;;7.95;2.53;;;5.60;99.90;;;;;;5022078;28;20479;-82
2024/01/16 02:00:04;;;;;;;7.10;2.15;;;5.60;99.90;;;;;;5016806;28;20064;-82
2024/01/16 02:02:30;;;;;;;3.72;1.90;;;5.60;99.90;;;;;;5036106;28;20111;-82
2024/01/16 02:04:56;;;;;;;5.22;2.15;;;5.60;99.90;;;;;;5031176;28;20490;-82
2024/01/16 02:07:22;;;;;;;4.18;2.03;;;5.60;99.90;;;;;;5012832;28;20106;-83
2024/01/16 02:09:48;;;;;;;4.85;2.00;;;5.60;99.90;;;;;;5011596;28;20018;-83
2024/01/16 02:12:14;;;;;;;4.00;1.85;;;5.70;99.90;;;;;;5012600;28;20488;-82
2024/01/16 02:14:39;;;;;;;7.55;2.08;;;5.60;99.90;;;;;;5036105;28;20032;-81
2024/01/16 02:17:05;;;;;;;5.93;2.25;;;5.60;99.90;;;;;;5015579;28;20077;-82
2024/01/16 02:19:31;;;;;;;6.18;2.38;;;5.70;99.90;;;;;;5029241;28;20017;-82
2024/01/16 02:22:00;;;;;;;6.22;2.10;;;5.60;99.90;;;;;;5024109;28;20526;-83
2024/01/16 02:24:26;;;;;;;4.80;1.95;;;5.60;99.90;;;;;;5029970;28;20048;-81
2024/01/16 02:26:53;;;;;;;7.82;2.08;;;5.60;99.90;;;;;;5032493;28;20064;-82
2024/01/16 02:29:18;;;;;;;3.38;1.80;;;5.70;99.90;;;;;;5018641;28;20033;-82
2024/01/16 02:31:44;;;;;;;4.03;2.28;;;5.70;99.90;;;;;;5015186;28;20021;-82
2024/01/16 02:34:09;;;;;;;9.02;1.90;;;5.70;99.90;;;;;;5013741;28;20109;-82
2024/01/16 02:36:35;;;;;;;4.72;2.00;;;5.60;99.90;;;;;;5015464;28;20059;-81
2024/01/16 02:39:00;;;;;;;2.00;1.42;;;5.60;99.90;;;;;;5018158;28;20022;-82
2024/01/16 02:41:26;;;;;;;3.33;1.70;;;5.70;99.90;;;;;;5015950;28;20086;-82
2024/01/16 02:43:51;;;;;;;4.65;2.13;;;5.60;99.90;;;;;;5012718;28;20030;-82
2024/01/16 02:46:17;;;;;;;3.42;2.08;;;5.60;99.90;;;;;;5007375;28;20028;-82
2024/01/16 02:48:43;;;;;;;6.85;2.15;;;5.60;99.90;;;;;;5021912;28;20018;-83
2024/01/16 02:51:08;;;;;;;3.60;1.85;;;5.60;99.90;;;;;;5018815;28;20155;-82
2024/01/16 02:53:34;;;;;;;3.08;1.85;;;5.60;99.90;;;;;;5034266;28;20017;-83
2024/01/16 02:56:00;;;;;;;3.65;1.90;;;5.60;99.90;;;;;;5013595;28;20132;-84
2024/01/16 02:58:27;;;;;;;6.18;2.03;;;5.60;99.90;;;;;;5007734;28;20029;-83
2024/01/16 03:00:52;;;;;;;4.10;2.03;;;5.60;99.90;;;;;;5010100;28;20502;-83
2024/01/16 03:03:18;;;;;;;5.03;1.88;;;5.60;99.90;;;;;;5037030;28;20030;-82
2024/01/16 03:05:44;;;;;;;5.07;1.70;;;5.60;99.90;;;;;;5030510;28;20026;-82
2024/01/16 03:08:10;;;;;;;5.30;1.50;;;5.60;99.90;;;;;;5031149;28;20026;-82
2024/01/16 03:10:36;;;;;;;2.75;1.92;;;5.60;99.90;;;;;;5016395;28;20151;-82
2024/01/16 03:13:01;;;;;;;2.05;1.83;;;5.60;99.90;;;;;;5012961;28;20018;-83
2024/01/16 03:15:27;;;;;;;4.15;2.20;;;5.60;99.90;;;;;;5040416;28;20033;-82
2024/01/16 03:17:53;;;;;;;3.95;1.80;;;5.60;99.90;;;;;;5013831;28;20072;-82
2024/01/16 03:20:18;;;;;;;3.15;1.70;;;5.60;99.90;;;;;;5018780;28;20025;-82
2024/01/16 03:22:44;;;;;;;4.93;2.63;;;5.60;99.90;;;;;;5028023;28;20022;-83
2024/01/16 03:25:13;;;;;;;7.20;2.10;;;5.60;99.90;;;;;;5014624;28;20034;-82
2024/01/16 03:27:38;;;;;;;3.47;1.77;;;5.60;99.90;;;;;;5041597;28;20114;-82
2024/01/16 03:30:06;;;;;;;6.70;1.98;;;5.60;99.90;;;;;;5020127;28;20503;-82
2024/01/16 03:32:31;;;;;;;5.15;2.85;;;5.60;99.90;;;;;;5011548;28;20017;-82
2024/01/16 03:34:57;;;;;;;9.60;1.90;;;5.60;99.90;;;;;;5015602;28;20479;-82
2024/01/16 03:37:23;;;;;;;5.00;2.08;;;5.60;99.90;;;;;;5026526;28;20091;-82
2024/01/16 03:39:50;;;;;;;2.50;1.77;;;5.60;99.90;;;;;;5022163;28;20032;-82
2024/01/16 03:42:15;;;;;;;5.60;1.75;;;5.60;99.90;;;;;;5020250;28;20407;-82
2024/01/16 03:44:41;;;;;;;5.45;1.92;;;5.50;99.90;;;;;;5020072;28;20021;-83
2024/01/16 03:47:07;;;;;;;2.30;1.77;;;5.50;99.90;;;;;;5031033;28;20646;-82
2024/01/16 03:49:33;;;;;;;3.20;1.63;;;5.50;99.90;;;;;;5010129;28;20079;-82
2024/01/16 03:51:59;;;;;;;4.72;2.13;;;5.50;99.90;;;;;;5021217;28;20435;-82
2024/01/16 03:54:25;;;;;;;3.95;1.67;;;5.50;99.90;;;;;;5016753;28;20028;-83
2024/01/16 03:56:51;;;;;;;2.17;1.92;;;5.50;99.90;;;;;;5014771;28;20049;-83
2024/01/16 03:59:17;;;;;;;4.13;2.08;;;5.50;99.90;;;;;;5016417;28;20109;-82
2024/01/16 04:01:44;;;;;;;5.97;2.10;;;5.50;99.90;;;;;;5024591;28;20036;-83
2024/01/16 04:04:10;;;;;;;3.88;2.13;;;5.50;99.90;;;;;;5019167;28;20025;-82
2024/01/16 04:06:36;;;;;;;8.50;2.38;;;5.50;99.90;;;;;;5040357;28;20522;-82
2024/01/16 04:09:02;;;;;;;5.13;2.10;;;5.60;99.90;;;;;;5033949;28;20022;-82
2024/01/16 04:11:28;;;;;;;4.65;2.13;;;5.50;99.90;;;;;;5018054;28;20024;-83
2024/01/16 04:13:54;;;;;;;5.03;2.40;;;5.50;99.90;;;;;;5013576;28;20041;-82
2024/01/16 04:16:20;;;;;;;5.25;2.00;;;5.50;99.90;;;;;;5014809;28;20476;-82
2024/01/16 04:18:45;;;;;;;4.47;1.85;;;5.50;99.90;;;;;;5035181;28;20021;-82
2024/01/16 04:21:11;;;;;;;6.90;2.20;;;5.50;99.90;;;;;;5021369;28;20503;-82
2024/01/16 04:23:37;;;;;;;2.78;1.88;;;5.50;99.90;;;;;;5015016;28;20025;-82
2024/01/16 04:26:02;;;;;;;3.25;2.03;;;5.50;99.90;;;;;;5013020;28;20021;-82
2024/01/16 04:28:28;;;;;;;5.40;1.98;;;5.50;99.90;;;;;;5016452;28;20025;-82
2024/01/16 04:30:54;;;;;;;4.15;2.10;;;5.50;99.90;;;;;;5041156;28;20025;-82
2024/01/16 04:33:19;;;;;;;5.28;2.03;;;5.50;99.90;;;;;;5017971;28;20025;-83
2024/01/16 04:35:45;;;;;;;3.85;1.67;;;5.40;99.90;;;;;;5017465;28;20032;-82
2024/01/16 04:38:11;;;;;;;3.75;1.83;;;5.40;99.90;;;;;;5013554;28;20033;-83
2024/01/16 04:40:37;;;;;;;4.05;2.20;;;5.40;99.90;;;;;;5013101;28;20033;-82
2024/01/16 04:43:02;;;;;;;11.85;2.58;;;5.40;99.90;;;;;;5015340;28;20484;-82
2024/01/16 04:45:28;;;;;;;4.53;2.20;;;5.40;99.90;;;;;;5019667;28;20025;-82
2024/01/16 04:47:54;;;;;;;3.95;1.95;;;5.50;99.90;;;;;;5030235;28;20051;-82
2024/01/16 04:50:19;;;;;;;2.55;1.73;;;5.50;99.90;;;;;;5013989;28;20057;-82
2024/01/16 04:52:45;;;;;;;5.57;2.20;;;5.40;99.90;;;;;;5017135;28;20047;-82
2024/01/16 04:55:11;;;;;;;3.72;2.40;;;5.40;99.90;;;;;;5019334;28;20053;-84
2024/01/16 05:08:30;;;;;;;5.82;2.75;;;5.50;99.90;;;;;;5033652;28;20453;-82
2024/01/16 05:10:56;;;;;;;4.50;2.22;;;5.50;99.90;;;;;;5003423;28;20022;-82
2024/01/16 05:16:44;;;;;;;6.10;2.55;;;5.40;99.90;;;;;;5028662;28;20043;-82
2024/01/16 05:19:10;;;;;;;6.70;2.55;;;5.40;99.90;;;;;;5009950;28;20464;-83
2024/01/16 05:21:35;;;;;;;3.70;1.80;;;5.40;99.90;;;;;;5029352;28;20137;-82
2024/01/16 05:24:01;;;;;;;4.53;2.03;;;5.40;99.90;;;;;;5012595;28;20436;-82
2024/01/16 05:37:15;;;;;;;6.93;2.40;;;5.40;99.90;;;;;;5028079;28;20032;-81
2024/01/16 05:39:41;;;;;;;2.72;1.73;;;5.50;99.90;;;;;;5015260;28;20033;-82
2024/01/16 05:45:28;;;;;;;3.92;2.00;;;5.50;99.90;;;;;;5020813;28;20107;-82
2024/01/16 05:47:55;;;;;;;5.10;2.20;;;5.40;99.90;;;;;;5011054;28;20479;-82
2024/01/16 05:50:20;;;;;;;6.55;2.10;;;5.40;99.90;;;;;;5027178;28;20018;-82
2024/01/16 05:52:46;;;;;;;4.50;2.25;;;5.40;99.90;;;;;;5026686;28;20475;-82
2024/01/16 05:55:12;;;;;;;8.95;2.90;;;5.40;99.90;;;;;;5011575;28;20025;-83
2024/01/16 06:08:08;;;;;;;7.00;2.88;;;5.40;99.90;;;;;;5029189;28;20648;-82
2024/01/16 06:10:34;;;;;;;;;;;5.40;99.90;;;;;;5005433;28;20024;-81
2024/01/16 06:16:21;;;;;;;3.50;2.05;;;5.40;99.90;;;;;;5023947;28;20025;-82
2024/01/16 06:18:47;;;;;;;6.97;2.72;;;5.40;99.90;;;;;;5010589;28;20108;-82
2024/01/16 06:21:13;;;;;;;4.95;2.45;;;5.40;99.90;;;;;;5011696;28;20049;-82
2024/01/16 06:23:38;;;;;;;4.10;2.38;;;5.50;99.90;;;;;;5029000;28;20053;-82
2024/01/16 06:26:04;;;;;;;4.13;2.28;;;5.40;99.90;;;;;;5030282;28;20026;-82
2024/01/16 06:28:29;;;;;;;5.60;2.63;;;5.40;99.90;;;;;;5007848;28;20033;-82
2024/01/16 06:41:44;;;;;;;5.32;2.88;;;5.40;99.90;;;;;;5020020;28;20147;-83
2024/01/16 06:47:32;;;;;;;8.48;3.17;;;5.40;99.90;;;;;;5028908;28;20047;-83
2024/01/16 06:49:58;;;;;;;10.88;3.05;;;5.40;99.90;;;;;;5015985;28;20029;-84
2024/01/16 06:52:24;;;;;;;11.57;3.22;;;5.40;99.90;;;;;;5031990;28;20045;-84
2024/01/16 06:54:50;;;;;;;6.57;3.28;;;5.40;99.90;;;;;;5011267;28;20104;-84
2024/01/16 06:57:16;;;;;;;6.88;2.83;;;5.40;99.90;;;;;;5012483;28;20113;-85
2024/01/16 06:59:41;;;;;;;4.95;2.42;;;5.40;99.90;;;;;;5014751;28;20087;-85
2024/01/16 07:02:07;;;;;;;9.05;2.60;;;5.40;99.90;;;;;;5017179;28;20021;-84
2024/01/16 07:14:40;;;;;;;8.05;2.13;;;10.00;96.40;;;;;;5027836;28;20043;-83
2024/01/16 07:17:07;;;;;;;5.55;2.10;;;9.80;93.80;;;;;;5005646;28;20483;-84
2024/01/16 07:22:55;;;;;;;5.78;2.35;;;6.80;98.60;;;;;;5023318;28;20028;-85
2024/01/16 07:25:20;;;;;;;3.90;1.88;;;6.20;99.90;;;;;;5010654;28;20026;-84
2024/01/16 07:27:49;;;;;;;8.25;2.53;;;5.90;99.90;;;;;;5010822;28;20121;-84
2024/01/16 07:30:15;;;;;;;8.68;2.40;;;5.80;99.90;;;;;;5015902;28;20036;-83
2024/01/16 07:32:40;;;;;;;5.60;2.33;;;5.80;99.90;;;;;;5014600;28;20018;-83
2024/01/16 07:35:06;;;;;;;4.65;3.13;;;5.70;99.90;;;;;;5016875;28;20764;-83
2024/01/16 09:18:34;;;;;;;7.00;3.00;;;5.60;99.90;;;;;;5022732;28;20079;-84
2024/01/16 09:24:22;;;;;;;12.95;3.78;;;5.60;99.90;;;;;;5026221;28;20105;-84
2024/01/16 09:26:47;;;;;;;11.75;3.88;;;5.60;99.90;;;;;;5012397;28;20100;-83
2024/01/16 09:29:14;;;;;;;5.95;3.60;;;5.60;99.90;;;;;;5011669;28;20052;-84
2024/01/16 09:31:40;;;;;;;8.65;3.63;;;5.60;99.90;;;;;;5013068;28;20021;-83
2024/01/16 09:34:06;;;;;;;8.00;3.75;;;5.60;99.90;;;;;;5011411;28;20072;-84
2024/01/16 09:36:32;;;;;;;8.77;3.40;;;5.70;99.90;;;;;;5013829;28;20021;-84
2024/01/16 09:38:57;;;;;;;11.57;4.47;;;5.70;99.90;;;;;;5010099;28;20048;-85
2024/01/16 09:41:23;;;;;;;10.85;4.63;;;5.60;99.90;;;;;;5011213;28;20021;-84
2024/01/16 09:43:51;;;;;;;5.82;3.28;;;5.70;99.90;;;;;;5029001;28;20018;-84
2024/01/16 09:46:19;;;;;;;8.15;4.20;;;5.70;99.90;;;;;;5012215;28;20022;-83
2024/01/16 09:48:45;;;;;;;9.15;4.30;;;5.70;99.90;;;;;;5029910;28;20025;-84
2024/01/16 09:51:14;;;;;;;12.23;3.88;;;5.70;99.90;;;;;;5030277;28;20018;-84
2024/01/16 09:53:41;;;;;;;10.70;4.18;;;5.70;99.90;;;;;;5012094;28;20402;-84
2024/01/16 09:56:13;;;;;;;9.43;3.78;;;5.70;99.90;;;;;;5013437;28;20045;-85
2024/01/16 09:58:39;;;;;;;6.65;3.35;;;5.70;99.90;;;;;;5030608;28;20025;-86
2024/01/16 10:01:05;;;;;;;10.50;4.00;;;5.70;99.90;;;;;;5014220;28;20109;-86
2024/01/16 10:03:33;;;;;;;8.30;3.88;;;5.70;99.90;;;;;;5028946;28;20049;-86
2024/01/16 10:05:59;;;;;;;10.77;3.92;;;5.70;99.90;;;;;;5010041;28;20022;-83
2024/01/16 10:08:26;;;;;;;9.77;4.60;;;5.70;99.90;;;;;;5028292;28;20022;-83
2024/01/16 10:10:52;;;;;;;10.20;4.18;;;5.70;99.90;;;;;;5012916;28;20113;-84
2024/01/16 10:13:18;;;;;;;7.25;3.45;;;5.80;99.90;;;;;;5033148;28;20442;-83
2024/01/16 10:15:44;;;;;;;11.70;4.43;;;5.80;99.90;;;;;;5010482;28;20070;-83
2024/01/16 10:18:33;;;;;;;7.30;3.63;;;5.80;99.90;;;;;;5012574;28;20033;-84
2024/01/16 10:21:00;;;;;;;8.77;3.70;;;5.80;99.90;;;;;;5025312;28;20029;-83
2024/01/16 10:23:27;;;;;;;7.47;3.72;;;5.80;99.90;;;;;;5012269;28;20017;-84
2024/01/16 10:26:12;;;;;;;10.15;4.25;;;5.90;99.90;;;;;;5029215;28;20498;-84
2024/01/16 10:28:42;;;;;;;11.07;4.60;;;5.90;99.90;;;;;;5006411;28;20021;-84
2024/01/16 10:31:09;;;;;;;8.60;4.00;;;5.90;99.90;;;;;;5014347;28;20018;-83
2024/01/16 10:33:38;;;;;;;10.60;3.83;;;5.90;99.90;;;;;;5013194;28;20030;-84
2024/01/16 10:36:25;;;;;;;7.50;3.67;;;5.90;99.90;;;;;;5029218;28;20047;-84
2024/01/16 10:38:57;;;;;;;6.57;3.83;;;5.90;99.90;;;;;;5024428;28;20402;-83
2024/01/16 10:41:25;;;;;;;9.65;3.88;;;5.90;99.90;;;;;;5005174;28;20202;-85
2024/01/16 10:44:07;;;;;;;8.23;3.67;;;5.90;99.90;;;;;;5026529;28;20021;-84
2024/01/16 10:46:33;;;;;;;11.38;4.25;;;5.90;99.90;;;;;;5010030;28;20049;-83
2024/01/16 10:49:00;;;;;;;6.78;3.25;;;5.90;99.90;;;;;;5010785;28;20026;-84
2024/01/16 10:51:30;;;;;;;7.63;3.85;;;5.90;99.90;;;;;;5010191;28;20052;-84
2024/01/16 10:54:05;;;;;;;9.98;4.03;;;6.00;99.90;;;;;;5010085;28;20163;-84
2024/01/16 10:56:31;;;;;;;6.95;4.50;;;6.00;99.90;;;;;;5022496;28;20033;-83
2024/01/16 10:59:20;;;;;;;17.10;4.20;;;6.00;99.90;;;;;;5012312;28;20022;-83
2024/01/16 11:01:51;;;;;;;11.93;3.38;;;6.10;99.90;;;;;;5012417;28;20052;-84
2024/01/16 11:04:18;;;;;;;12.13;4.10;;;6.10;99.90;;;;;;5029978;28;20029;-84
2024/01/16 11:06:44;;;;;;;10.55;3.97;;;6.00;99.90;;;;;;5009905;28;20157;-84
2024/01/16 11:09:15;;;;;;;10.25;4.32;;;6.10;99.90;;;;;;5012195;28;20060;-84
2024/01/16 11:11:43;;;;;;;16.50;4.82;;;6.00;99.90;;;;;;5026038;28;20022;-83
2024/01/16 11:14:09;;;;;;;10.85;4.60;;;6.10;99.90;;;;;;5012291;28;20427;-84
2024/01/16 11:16:35;;;;;;;11.98;4.65;;;6.10;99.90;;;;;;5027603;28;20017;-84
2024/01/16 11:19:04;;;;;;;8.30;3.97;;;6.10;99.90;;;;;;5010684;28;20555;-84
2024/01/16 11:21:30;;;;;;;11.60;5.07;;;6.00;99.90;;;;;;5010432;28;20025;-83
2024/01/16 11:23:55;;;;;;;9.23;3.80;;;6.00;99.90;;;;;;5007932;28;20024;-83
2024/01/16 11:26:32;;;;;;;13.07;4.15;;;6.10;99.90;;;;;;5028487;28;20035;-84
2024/01/16 11:28:59;;;;;;;11.45;4.47;;;6.00;99.90;;;;;;5011494;28;20021;-83
2024/01/16 11:31:34;;;;;;;7.82;4.30;;;6.00;99.90;;;;;;5012628;28;20443;-83
2024/01/16 11:34:02;;;;;;;10.73;5.63;;;6.00;99.90;;;;;;5013403;28;20022;-84
2024/01/16 11:36:54;;;;;;;9.05;4.25;;;6.00;99.90;;;;;;5011297;28;20526;-84
2024/01/16 11:39:27;;;;;;;9.60;3.78;;;6.00;99.90;;;;;;5015981;28;20024;-85
2024/01/16 11:41:54;;;;;;;9.43;5.10;;;6.10;99.90;;;;;;5012369;28;20083;-84
2024/01/16 11:44:41;;;;;;;11.73;4.07;;;6.20;99.90;;;;;;5016537;28;20501;-84
2024/01/16 11:47:07;;;;;;;9.88;3.85;;;6.30;99.90;;;;;;5006951;28;20030;-83
2024/01/16 11:49:33;;;;;;;8.35;4.45;;;6.40;99.90;;;;;;5014943;28;20023;-84
2024/01/16 11:51:59;;;;;;;11.93;3.85;;;6.50;99.90;;;;;;5013988;28;20391;-82
2024/01/16 11:54:26;;;;;;;7.45;3.45;;;6.40;99.90;;;;;;5029789;28;20514;-81
2024/01/16 11:56:51;;;;;;;8.00;4.00;;;6.40;99.90;;;;;;5014331;28;20030;-81
2024/01/16 11:59:23;;;;;;;7.60;3.60;;;6.30;99.90;;;;;;5010890;28;21285;-82
2024/01/16 12:01:52;;;;;;;12.35;4.85;;;6.30;99.90;;;;;;5011294;28;20052;-84
2024/01/16 12:04:20;;;;;;;8.02;3.78;;;6.30;99.90;;;;;;5014453;28;20082;-84
2024/01/16 12:06:59;;;;;;;7.68;3.65;;;6.20;99.90;;;;;;5031234;28;20022;-82
2024/01/16 12:09:26;;;;;;;11.03;3.70;;;6.20;99.90;;;;;;5014549;28;20033;-81
2024/01/16 12:12:02;;;;;;;8.13;3.30;;;6.20;99.90;;;;;;5014523;28;20129;-84
2024/01/16 12:14:29;;;;;;;6.30;3.70;;;6.20;99.90;;;;;;5014192;28;20394;-81
2024/01/16 12:17:11;;;;;;;5.75;3.45;;;6.20;99.90;;;;;;5014076;28;20017;-81
2024/01/16 12:19:36;;;;;;;10.77;3.45;;;6.20;99.90;;;;;;5029481;28;20022;-82
2024/01/16 12:22:02;;;;;;;8.40;3.00;;;6.20;99.90;;;;;;5027210;28;20502;-81
2024/01/16 12:24:28;;;;;;;4.85;2.83;;;6.20;99.90;;;;;;5025494;28;20022;-81
2024/01/16 12:26:58;;;;;;;3.55;2.47;;;6.20;99.90;;;;;;5014284;28;20379;-83
2024/01/16 12:29:23;;;;;;;5.55;2.60;;;6.20;99.90;;;;;;5029625;28;20025;-81
2024/01/16 12:31:49;;;;;;;4.65;2.35;;;6.20;99.90;;;;;;5030366;28;20095;-81
2024/01/16 12:34:14;;;;;;;6.93;2.60;;;6.20;99.90;;;;;;5013257;28;20488;-81
2024/01/16 12:36:40;;;;;;;5.68;2.25;;;6.10;99.90;;;;;;5013435;28;20025;-82
2024/01/16 12:39:06;;;;;;;4.13;2.08;;;6.10;99.90;;;;;;5013358;28;20026;-82
2024/01/16 12:41:36;;;;;;;6.00;2.65;;;6.10;99.90;;;;;;5012328;28;20167;-81
2024/01/16 12:44:03;;;;;;;3.10;2.17;;;6.10;99.90;;;;;;5013293;28;20025;-83
2024/01/16 12:46:28;;;;;;;3.38;1.85;;;6.10;99.90;;;;;;5030536;28;20018;-82
2024/01/16 12:49:01;;;;;;;3.78;1.80;;;6.10;99.90;;;;;;5031303;28;20025;-83
2024/01/16 12:51:26;;;;;;;3.63;2.20;;;6.00;99.90;;;;;;5031084;28;20395;-83
2024/01/16 12:53:52;;;;;;;3.20;1.50;;;6.00;99.90;;;;;;5030420;28;20018;-86
2024/01/16 12:56:20;;;;;;;4.47;2.08;;;6.00;99.90;;;;;;5012956;28;20487;-82
2024/01/16 12:58:47;;;;;;;6.70;1.77;;;6.00;99.90;;;;;;5029250;28;20029;-84
2024/01/16 13:01:25;;;;;;;5.25;2.15;;;6.00;99.90;;;;;;5031297;28;20029;-83
2024/01/16 13:03:52;;;;;;;3.17;1.80;;;6.00;99.90;;;;;;5012192;28;20021;-81
2024/01/16 13:06:19;;;;;;;2.58;1.70;;;6.00;99.90;;;;;;5025236;28;20598;-82
2024/01/16 13:08:48;;;;;;;7.85;1.90;;;6.00;99.90;;;;;;5026478;28;20037;-82
2024/01/16 13:11:19;;;;;;;4.85;2.22;;;6.00;99.90;;;;;;5011499;28;20025;-82
2024/01/16 13:13:45;;;;;;;4.53;2.00;;;6.00;99.90;;;;;;5027084;28;20024;-83
2024/01/16 13:16:11;;;;;;;5.50;1.98;;;6.00;99.90;;;;;;5014134;28;20487;-83
2024/01/16 13:18:37;;;;;;;3.20;1.70;;;6.00;99.90;;;;;;5012338;28;20032;-83
2024/01/16 13:21:04;;;;;;;4.95;1.95;;;6.00;99.90;;;;;;5012456;28;20021;-83
2024/01/16 13:23:29;;;;;;;5.95;2.42;;;6.00;99.90;;;;;;5015095;28;20032;-83
2024/01/16 13:25:56;;;;;;;6.25;1.90;;;6.00;99.90;;;;;;5027783;28;20108;-84
2024/01/16 13:28:22;;;;;;;2.85;1.42;;;5.90;99.90;;;;;;5028077;28;20025;-83
2024/01/16 13:30:48;;;;;;;5.80;2.42;;;6.00;99.90;;;;;;5030502;28;20091;-79
2024/01/16 13:33:18;;;;;;;3.90;2.20;;;6.00;99.90;;;;;;5028378;28;20483;-80
2024/01/16 13:35:46;;;;;;;6.97;2.47;;;6.00;99.90;;;;;;5030449;28;20040;-83
2024/01/16 13:38:12;;;;;;;6.55;3.00;;;6.00;99.90;;;;;;5026670;28;20026;-83
2024/01/16 13:40:38;;;;;;;4.22;2.53;;;6.00;99.90;;;;;;5010145;28;20386;-81
2024/01/16 13:43:06;;;;;;;6.88;2.92;;;6.00;99.90;;;;;;5037936;28;20113;-82
2024/01/16 13:45:33;;;;;;;6.15;3.22;;;6.00;99.90;;;;;;5035464;28;20021;-82
2024/01/16 13:47:58;;;;;;;5.30;2.92;;;6.00;99.90;;;;;;5035211;28;20024;-82
2024/01/16 13:50:24;;;;;;;10.93;2.38;;;5.90;99.90;;;;;;5029895;28;20514;-82
2024/01/16 13:52:50;;;;;;;5.95;2.72;;;5.90;99.90;;;;;;5014562;28;20029;-82
2024/01/16 13:55:16;;;;;;;10.27;2.70;;;6.00;99.90;;;;;;5012875;28;20112;-82
2024/01/16 13:57:41;;;;;;;8.63;2.75;;;6.00;99.90;;;;;;5029168;28;20509;-83
2024/01/16 14:00:13;;;;;;;6.75;2.63;;;5.90;99.90;;;;;;5031849;28;20399;-83
2024/01/16 14:02:48;;;;;;;10.13;2.55;;;5.90;99.90;;;;;;5026367;28;20026;-83
2024/01/16 14:05:19;;;;;;;4.32;2.72;;;5.90;99.90;;;;;;5011870;28;20108;-81
2024/01/16 14:07:46;;;;;;;8.30;3.30;;;6.00;99.90;;;;;;5016156;28;20100;-83
2024/01/16 14:10:15;;;;;;;6.93;3.05;;;6.00;99.90;;;;;;5031891;28;20030;-83
2024/01/16 14:12:45;;;;;;;4.78;2.75;;;6.00;99.90;;;;;;5031438;28;20513;-81
2024/01/16 14:15:22;;;;;;;4.50;2.65;;;6.00;99.90;;;;;;5013664;28;20459;-83
2024/01/16 14:17:49;;;;;;;10.07;2.80;;;6.00;99.90;;;;;;5014053;28;20798;-83
2024/01/16 14:20:17;;;;;;;6.65;3.10;;;6.00;99.90;;;;;;5030949;28;20407;-82
2024/01/16 14:22:43;;;;;;;7.78;2.63;;;6.00;99.90;;;;;;5023168;28;20013;-84
2024/01/16 14:25:12;;;;;;;4.53;2.40;;;6.00;99.90;;;;;;5030331;28;20043;-83
2024/01/16 14:27:43;;;;;;;9.57;2.80;;;6.00;99.90;;;;;;5031790;28;20029;-83
2024/01/16 14:30:15;;;;;;;4.70;2.90;;;6.00;99.90;;;;;;5031983;28;20264;-83
2024/01/16 14:32:42;;;;;;;9.15;3.45;;;6.00;99.90;;;;;;5016967;28;20484;-83
2024/01/16 14:35:09;;;;;;;6.32;2.80;;;5.90;99.90;;;;;;5012550;28;20488;-82
2024/01/16 14:37:38;;;;;;;7.03;3.00;;;5.90;99.90;;;;;;5036290;28;20017;-82
2024/01/16 14:40:12;;;;;;;7.90;3.33;;;5.90;99.90;;;;;;5033864;28;20021;-84
2024/01/16 14:42:42;;;;;;;6.07;2.55;;;5.90;99.90;;;;;;5017002;28;20553;-82
2024/01/16 14:45:08;;;;;;;14.02;2.90;;;5.90;99.90;;;;;;5027066;28;20013;-83
2024/01/16 14:47:37;;;;;;;9.02;2.80;;;5.90;99.90;;;;;;5021065;28;20064;-82
2024/01/16 14:50:03;;;;;;;9.80;3.38;;;5.90;99.90;;;;;;5039303;28;20047;-83
2024/01/16 14:52:32;;;;;;;7.20;3.70;;;5.90;99.90;;;;;;5026201;28;20476;-84
2024/01/16 14:54:58;;;;;;;3.13;1.27;;;5.90;99.90;;;;;;5016173;28;20017;-83
2024/01/16 14:57:24;;;;;;;8.48;2.10;;;9.10;99.90;;;;;;5018605;28;20039;-84
2024/01/16 14:59:50;;;;;;;4.72;2.10;;;8.00;99.90;;;;;;5018899;28;20017;-82
2024/01/16 15:02:16;;;;;;;8.30;3.38;;;7.00;99.90;;;;;;5017048;28;20033;-84
2024/01/16 15:04:42;;;;;;;7.13;3.05;;;6.50;99.90;;;;;;5037418;28;20021;-83
2024/01/16 15:07:09;;;;;;;7.93;2.53;;;6.30;99.90;;;;;;5036515;28;20113;-82
2024/01/16 15:09:34;;;;;;;6.78;3.55;;;6.20;99.90;;;;;;5017785;28;20029;-82
2024/01/16 15:12:06;;;;;;;4.90;2.58;;;6.10;99.90;;;;;;5035532;28;20551;-83
2024/01/16 15:14:35;;;;;;;5.32;2.63;;;6.00;99.90;;;;;;5020062;28;20025;-83
2024/01/16 15:17:01;;;;;;;6.78;2.83;;;6.00;99.90;;;;;;5034486;28;20018;-83
2024/01/16 15:19:28;;;;;;;6.18;2.50;;;6.00;99.90;;;;;;5019320;28;20033;-83
2024/01/16 15:21:54;;;;;;;8.43;3.03;;;6.00;99.90;;;;;;5044966;28;20013;-83
2024/01/16 15:24:26;;;;;;;6.35;2.90;;;6.00;99.90;;;;;;5017698;28;20029;-83
2024/01/16 15:26:53;;;;;;;8.43;3.28;;;6.00;99.90;;;;;;5038711;28;20014;-83
2024/01/16 15:29:18;;;;;;;9.23;2.95;;;6.00;99.90;;;;;;5017982;28;20036;-83
2024/01/16 15:31:44;;;;;;;4.88;2.83;;;5.90;99.90;;;;;;5016311;28;20013;-83
2024/01/16 15:34:09;;;;;;;7.82;3.35;;;5.90;99.90;;;;;;5033867;28;20033;-83
2024/01/16 15:36:35;;;;;;;6.47;3.05;;;6.00;99.90;;;;;;5011701;28;20623;-83
2024/01/16 15:39:02;;;;;;;8.13;3.13;;;5.90;99.90;;;;;;5016184;28;20373;-83
2024/01/16 15:41:27;;;;;;;6.05;3.17;;;6.00;99.90;;;;;;5017602;28;20044;-82
2024/01/16 15:43:53;;;;;;;5.07;3.10;;;5.90;99.90;;;;;;5020750;28;20029;-84
2024/01/16 15:46:18;;;;;;;6.78;3.58;;;5.90;99.90;;;;;;5017302;28;20043;-83
2024/01/16 15:48:44;;;;;;;8.63;3.03;;;5.90;99.90;;;;;;5025890;28;20052;-83